Seattle, WA

8:55 AM PST on February 12, 2016 (GMT -0800)
North Delridge | | Change Station
CLOSE
Current Station
Personal Weather Station
Location: Seattle, WA
Elevation: 66 ft
Nearby Weather Stations

Elev 66 ft 47.57 °N, 122.37 °W | Updated 12 minutes ago

Mostly Cloudy
Mostly Cloudy
54.1 °F
Feels Like 54.1 °F
N
4.2
Wind Variable Wind from South

Today
High -- | Low -- °F
--% Chance of Precip.
Yesterday
High -- | Low -- °F
Precip. -- in
Pressure 30.06 in
Visibility 10.0 miles
Clouds Scattered Clouds 1000 ft
Mostly Cloudy 1300 ft
Mostly Cloudy 5000 ft
Dew Point 53 °F
Humidity 97%
Rainfall 0.66 in
Snow Depth Not available.
7:20 AM 5:27 PM
Waxing Crescent, 22% visible
METAR KBFI 121653Z 00000KT 10SM -RA SCT010 BKN013 BKN050 12/11 A3006 RMK AO2 RAB53 SLP178 P0000 T01220111
Pressure 30.06 in
Visibility 10.0 miles
Clouds Scattered Clouds 1000 ft
Mostly Cloudy 1300 ft
Mostly Cloudy 5000 ft
Dew Point 53 °F
Humidity 97%
Rainfall 0.66 in
Snow Depth Not available.
7:20 AM 5:27 PM
Waxing Crescent, 22% visible
METAR KBFI 121653Z 00000KT 10SM -RA SCT010 BKN013 BKN050 12/11 A3006 RMK AO2 RAB53 SLP178 P0000 T01220111

10-Day Weather Forecast

Almanac

Astronomy

Feb. 12, 2016 Rise Set
Actual Time
Civil Twilight
Nautical Twilight
Astronomical Twilight
Moon
Length of Visible Light
Length of Day
Tomorrow will be .
, % of the Moon is Illuminated

Today's Extremes

State Highs State Lows

Community

WunderPhotos

Upload Photos

1,892,354 photos uploaded!

WunderBlog® & News

Nearby

Air Quality

  Air Quality AQ Index Pollutant
Not available.

Snow Depth

Station Depth Elevation

Earthquake Activity

City Distance Mag. Time & Date
Minimum magnitude displayed is 2.5.

Coastal Water Temperatures

Place Temperature

Stations

Nearby Weather Stations

Station Location Temp. Windchill Dew Point Humidity Wind Precip. Elev Updated Type
                   

Watches & Warnings

There are currently no watches in effect.